createdAt,value
2019-03-28T03:14:12.065Z,99.99
2019-03-28T03:15:11.659Z,99.99
2019-03-28T03:16:11.621Z,99.99
2019-03-28T03:17:12.004Z,99.99
2019-03-28T03:18:11.543Z,99.99
2019-03-28T03:19:11.533Z,99.99
2019-03-28T03:20:11.512Z,99.99
2019-03-28T03:21:11.521Z,99.99
2019-03-28T03:22:11.458Z,99.99
2019-03-28T03:23:11.505Z,99.99
2019-03-28T03:24:11.452Z,99.99
2019-03-28T03:25:11.464Z,99.99
2019-03-28T03:26:11.415Z,99.99
2019-03-28T03:27:11.438Z,99.99
2019-03-28T03:28:11.383Z,99.99
2019-03-28T03:29:11.390Z,99.99
2019-03-28T03:30:11.364Z,99.99
2019-03-28T03:31:11.364Z,99.99
2019-03-28T03:32:11.348Z,99.99
2019-03-28T03:33:11.401Z,99.99
2019-03-28T03:34:11.344Z,99.99
2019-03-28T03:35:11.351Z,99.99
2019-03-28T03:36:11.333Z,99.99
2019-03-28T03:37:11.333Z,99.99
2019-03-28T03:38:11.288Z,99.99
2019-03-28T03:39:11.347Z,99.99
2019-03-28T03:41:50.976Z,99.99
2019-03-28T03:43:00.540Z,99.99
2019-03-28T03:44:55.615Z,99.99
2019-03-28T03:45:55.001Z,99.99
2019-03-28T03:46:54.917Z,99.99
2019-03-28T03:47:54.951Z,99.99
2019-03-28T03:48:54.930Z,99.99
2019-03-28T03:49:54.878Z,99.99
2019-03-28T03:50:54.933Z,99.99
2019-03-28T03:51:54.837Z,99.99
2019-03-28T03:52:54.846Z,99.99
2019-03-28T03:53:54.882Z,99.99
2019-03-28T03:54:54.869Z,99.99
2019-03-28T03:55:54.811Z,99.99
2019-03-28T03:56:54.843Z,99.99
2019-03-28T03:57:54.832Z,99.99
2019-03-28T03:58:55.135Z,99.99
2019-03-28T03:59:54.787Z,99.99
2019-03-28T04:00:54.731Z,99.99
2019-03-28T04:01:54.763Z,99.99
2019-03-28T04:02:54.750Z,99.99
2019-03-28T04:03:55.778Z,99.99
2019-03-28T04:04:56.713Z,99.99
2019-03-28T04:05:54.680Z,99.99
2019-03-28T04:06:54.710Z,99.99
2019-03-28T04:07:54.743Z,99.99
2019-03-28T04:08:54.665Z,99.99
2019-03-28T04:09:54.663Z,99.99
2019-03-28T04:10:54.628Z,99.99
2019-03-28T04:11:54.618Z,99.99
2019-03-28T04:12:54.627Z,99.99
2019-03-28T04:13:54.625Z,99.99
2019-03-28T04:14:54.667Z,99.99
2019-03-28T04:15:54.563Z,99.99
2019-03-28T04:16:55.591Z,99.99
2019-03-28T04:17:54.559Z,99.99
2019-03-28T04:18:54.522Z,99.99
2019-03-28T04:19:54.545Z,99.99
2019-03-28T04:20:54.523Z,99.99
2019-03-28T04:21:54.501Z,99.99
2019-03-28T04:22:54.535Z,99.99
2019-03-28T04:23:55.704Z,99.99
2019-03-28T04:24:54.465Z,99.99
2019-03-28T04:25:54.538Z,99.99
2019-03-28T04:26:54.485Z,99.99
2019-03-28T04:27:54.425Z,99.99
2019-03-28T04:28:54.477Z,99.99
2019-03-28T04:29:54.430Z,99.99
2019-03-28T04:30:54.439Z,99.99
2019-03-28T04:31:54.467Z,99.99
2019-03-28T04:32:54.412Z,99.99
2019-03-28T04:33:54.378Z,99.99
2019-03-28T04:37:34.351Z,99.99
2019-03-28T04:38:33.966Z,99.99
2019-03-28T04:40:40.676Z,99.99
2019-03-28T04:41:40.328Z,99.99
2019-03-28T04:43:35.201Z,99.99
2019-03-28T04:44:34.831Z,99.99
2019-03-28T04:45:34.816Z,99.99
2019-03-28T04:46:43.797Z,99.99
2019-03-28T04:48:39.370Z,99.99
2019-03-28T04:49:39.309Z,99.99
2019-03-28T04:50:39.292Z,99.99
2019-03-28T04:51:39.438Z,99.99
2019-03-28T04:52:39.210Z,99.99
2019-03-28T04:53:39.192Z,99.99
2019-03-28T04:54:39.234Z,99.99
2019-03-28T04:55:39.188Z,99.99
2019-03-28T04:56:39.195Z,99.99
2019-03-28T04:57:41.088Z,99.99
2019-03-28T04:58:44.700Z,99.99
2019-03-28T04:59:39.159Z,99.99
2019-03-28T05:00:39.135Z,99.99
2019-03-28T05:01:39.086Z,99.99
2019-03-28T05:02:39.106Z,99.99
2019-03-28T05:03:39.070Z,99.99
2019-03-28T05:04:39.087Z,99.99
2019-03-28T05:05:39.135Z,99.99
2019-03-28T05:06:39.098Z,99.99
2019-03-28T05:07:39.066Z,99.99
2019-03-28T05:08:39.060Z,99.99
2019-03-28T05:09:39.056Z,99.99
2019-03-28T05:12:19.716Z,99.99
2019-03-28T05:13:20.273Z,99.99
2019-03-28T05:14:19.375Z,99.99
2019-03-28T05:15:20.498Z,99.99
2019-03-28T05:16:28.467Z,99.99
2019-03-28T05:18:23.899Z,99.99
2019-03-28T05:19:34.851Z,99.99
2019-03-28T05:21:28.758Z,99.99
2019-03-28T05:22:28.399Z,99.99
2019-03-28T05:23:28.349Z,99.99
2019-03-28T05:24:28.619Z,99.99
2019-03-28T05:25:28.262Z,99.99
2019-03-28T05:26:28.286Z,99.99
2019-03-28T05:27:28.244Z,99.99
2019-03-28T05:28:28.208Z,99.99
2019-03-28T05:29:37.418Z,99.99
2019-03-28T05:31:44.234Z,99.99
2019-03-28T05:32:43.648Z,99.99
2019-03-28T05:33:52.886Z,99.99
2019-03-28T05:35:58.723Z,99.99
2019-03-28T05:36:59.251Z,99.99
2019-03-28T05:38:43.259Z,99.99
2019-03-28T05:39:42.751Z,99.99
2019-03-28T05:41:48.190Z,99.99
2019-03-28T05:42:47.725Z,99.99
2019-03-28T05:43:48.039Z,99.99
2019-03-28T05:44:47.698Z,99.99
2019-03-28T05:47:29.562Z,99.99
2019-03-28T05:48:28.128Z,99.99
2019-03-28T05:49:38.439Z,99.99
2019-03-28T05:51:33.511Z,99.99
2019-03-28T05:52:32.697Z,99.99
2019-03-28T05:53:32.677Z,99.99
2019-03-28T05:54:33.513Z,99.99
2019-03-28T05:55:34.348Z,99.99
2019-03-28T05:56:32.459Z,99.99
2019-03-28T05:57:32.505Z,99.99
2019-03-28T05:58:32.522Z,99.99
2019-03-28T05:59:32.540Z,99.99
2019-03-28T06:00:32.562Z,99.99
2019-03-28T06:01:32.586Z,99.99
2019-03-28T06:02:32.449Z,99.99
2019-03-28T06:03:32.461Z,99.99
2019-03-28T06:04:32.434Z,99.99
2019-03-28T06:05:32.358Z,99.99
2019-03-28T06:06:32.448Z,99.99
2019-03-28T06:07:32.395Z,99.99
2019-03-28T06:08:32.364Z,99.99
2019-03-28T06:09:32.372Z,99.99
2019-03-28T06:13:40.339Z,99.99
2019-03-28T06:14:31.328Z,99.99
2019-03-28T06:16:25.369Z,99.99
2019-03-28T06:17:24.370Z,99.99
2019-03-28T06:18:24.374Z,99.99
2019-03-28T06:19:24.295Z,99.99
2019-03-28T06:20:24.307Z,99.99
2019-03-28T06:21:24.369Z,99.99
2019-03-28T06:22:24.724Z,99.99
2019-03-28T06:23:24.323Z,99.99
2019-03-28T06:24:24.227Z,99.99
2019-03-28T06:25:24.285Z,99.99
2019-03-28T06:26:24.208Z,99.99
2019-03-28T06:27:24.201Z,99.99
2019-03-28T06:28:33.479Z,99.99
2019-03-28T06:30:29.598Z,99.99
2019-03-28T06:31:29.069Z,99.99
2019-03-28T06:32:41.979Z,99.99
2019-03-28T06:33:38.743Z,99.99
2019-03-28T06:35:34.570Z,99.99
2019-03-28T06:41:23.247Z,99.99
2019-03-28T06:42:20.948Z,99.99
2019-03-28T06:43:22.912Z,99.99
2019-03-28T06:44:22.344Z,99.99
2019-03-28T06:45:20.883Z,99.99
2019-03-28T06:46:21.078Z,99.99
2019-03-28T06:47:21.277Z,99.99
2019-03-28T06:48:20.790Z,99.99
2019-03-28T06:49:20.807Z,99.99
2019-03-28T06:50:20.791Z,99.99
2019-03-28T06:51:20.775Z,99.99
2019-03-28T06:52:21.190Z,99.99
2019-03-28T06:53:20.698Z,99.99
2019-03-28T06:54:20.734Z,99.99
2019-03-28T06:55:23.683Z,99.99
2019-03-28T06:56:20.745Z,99.99
2019-03-28T06:57:20.739Z,99.99
2019-03-28T06:58:20.724Z,99.99
2019-03-28T06:59:20.630Z,99.99
2019-03-28T07:00:20.738Z,99.99
2019-03-28T07:01:20.709Z,99.99
2019-03-28T07:02:22.069Z,99.99
2019-03-28T07:03:20.809Z,99.99
2019-03-28T07:04:20.622Z,99.99
2019-03-28T07:05:20.554Z,99.99
2019-03-28T07:06:20.649Z,99.99
2019-03-28T07:07:20.611Z,99.99
2019-03-28T07:10:16.122Z,99.99
2019-03-28T07:11:15.326Z,99.99
2019-03-28T07:12:14.042Z,99.68
2019-03-28T07:13:15.316Z,99.58
2019-03-28T07:18:13.069Z,99.30
2019-03-28T07:19:12.911Z,98.63
2019-03-28T07:20:12.089Z,98.73
2019-03-28T07:21:12.644Z,99.01
2019-03-28T07:22:12.923Z,99.30
2019-03-28T07:23:11.499Z,98.44
2019-03-28T07:24:11.106Z,98.82
2019-03-28T07:25:12.953Z,98.63
2019-03-28T07:26:12.959Z,98.44
2019-03-28T07:27:12.860Z,99.73
2019-03-28T07:28:12.773Z,97.83
2019-03-28T07:32:59.185Z,95.84
2019-03-28T07:33:59.296Z,96.12
2019-03-28T07:34:58.984Z,96.03
2019-03-28T07:35:58.829Z,96.50
2019-03-28T07:36:58.745Z,95.93
2019-03-28T07:37:58.692Z,96.88
2019-03-28T07:38:58.932Z,97.17
2019-03-28T07:39:58.783Z,95.84
2019-03-28T07:40:58.869Z,94.98
2019-03-28T07:41:59.009Z,94.60
2019-03-28T07:42:58.863Z,93.70
2019-03-28T07:43:58.873Z,93.70
2019-03-28T07:44:58.434Z,93.41
2019-03-28T07:45:58.870Z,93.23
2019-03-28T07:46:58.682Z,93.23
2019-03-28T07:47:58.397Z,91.99
2019-03-28T07:48:58.694Z,92.37
2019-03-28T07:49:59.291Z,92.56
2019-03-28T07:50:58.546Z,92.09
2019-03-28T07:51:58.656Z,91.89
2019-03-28T07:52:56.741Z,91.99
2019-03-28T07:53:56.584Z,91.89
2019-03-28T07:54:56.378Z,91.99
2019-03-28T07:55:57.446Z,90.95
2019-03-28T07:56:56.398Z,90.85
2019-03-28T07:57:56.419Z,90.38
2019-03-28T07:58:56.619Z,90.28
2019-03-28T08:00:03.988Z,89.81
2019-03-28T08:00:56.307Z,89.09
2019-03-28T08:01:56.426Z,89.28
2019-03-28T08:02:58.424Z,89.67
2019-03-28T08:03:56.386Z,89.95
2019-03-28T08:04:56.593Z,89.86
2019-03-28T08:05:56.358Z,89.95
2019-03-28T08:06:56.362Z,88.62
2019-03-28T08:07:56.391Z,89.76
2019-03-28T08:08:56.260Z,89.19
2019-03-28T08:09:56.284Z,88.43
2019-03-28T08:10:56.357Z,88.90
2019-03-28T08:11:56.214Z,88.81
2019-03-28T08:12:56.303Z,88.62
2019-03-28T08:13:56.201Z,88.62
2019-03-28T08:14:56.207Z,89.67
2019-03-28T08:15:56.317Z,90.23
2019-03-28T08:16:56.277Z,90.23
2019-03-28T08:17:56.171Z,89.52
2019-03-28T08:21:03.988Z,87.71
2019-03-28T08:22:04.363Z,86.86
2019-03-28T08:23:04.332Z,85.91
2019-03-28T08:24:04.491Z,85.43
2019-03-28T08:25:07.394Z,85.34
2019-03-28T08:26:03.419Z,86.00
2019-03-28T08:27:04.454Z,85.62
2019-03-28T08:28:04.334Z,85.53
2019-03-28T08:29:04.484Z,86.10
2019-03-28T08:32:13.377Z,85.47
2019-03-28T08:33:09.634Z,84.81
2019-03-28T08:36:35.708Z,85.19
2019-03-28T08:39:44.337Z,83.39
2019-03-28T08:40:34.285Z,83.19
2019-03-28T08:42:53.901Z,84.05
2019-03-28T08:43:52.902Z,82.81
2019-03-28T08:45:58.664Z,83.76
2019-03-28T08:49:04.623Z,81.81
2019-03-28T08:50:05.754Z,82.34
2019-03-28T08:53:08.569Z,83.90
2019-03-28T08:53:58.311Z,83.39
2019-03-28T08:56:39.409Z,83.33
2019-03-28T08:57:39.228Z,82.76
2019-03-28T08:58:38.621Z,82.86
2019-03-28T08:59:39.137Z,82.48
2019-03-28T09:02:46.688Z,84.00
2019-03-28T09:05:39.860Z,84.00
2019-03-28T09:08:45.097Z,83.42
2019-03-28T09:11:25.399Z,82.38
2019-03-28T09:14:19.039Z,81.81
2019-03-28T09:15:27.930Z,81.90
2019-03-28T09:16:19.037Z,82.19
2019-03-28T09:18:58.126Z,82.14
2019-03-28T09:19:57.784Z,81.18
2019-03-28T09:21:06.698Z,80.42
2019-03-28T09:23:20.939Z,80.42
2019-03-28T09:26:16.582Z,79.94
2019-03-28T09:27:22.925Z,80.61
2019-03-28T09:28:15.140Z,79.47
2019-03-28T09:32:16.143Z,80.36
2019-03-28T09:33:13.087Z,79.80
2019-03-28T09:34:13.696Z,78.65
2019-03-28T09:35:14.257Z,78.17
2019-03-28T09:36:14.668Z,77.80
2019-03-28T09:40:07.758Z,77.89
2019-03-28T09:43:54.172Z,78.17
2019-03-28T09:46:32.818Z,77.89
2019-03-28T09:47:23.571Z,78.98
2019-03-28T09:48:23.790Z,77.36
2019-03-28T09:49:23.887Z,76.59
2019-03-28T09:50:23.796Z,75.93
2019-03-28T09:51:23.575Z,76.40
2019-03-28T09:52:23.715Z,77.55
2019-03-28T09:53:22.602Z,77.93
2019-03-28T09:54:23.124Z,77.45
2019-03-28T09:55:23.762Z,77.83
2019-03-28T09:56:23.759Z,76.88
2019-03-28T09:57:23.694Z,76.12
2019-03-28T09:58:23.795Z,75.64
2019-03-28T09:59:23.667Z,75.74
2019-03-28T10:00:23.022Z,76.16
2019-03-28T10:01:21.684Z,75.49
2019-03-28T10:02:21.600Z,73.87
2019-03-28T10:03:21.815Z,73.77
2019-03-28T10:04:21.636Z,73.39
2019-03-28T10:05:21.705Z,74.16
2019-03-28T10:06:21.668Z,73.68
2019-03-28T10:07:21.600Z,72.72
2019-03-28T10:08:21.642Z,72.72
2019-03-28T10:09:21.556Z,73.11
2019-03-28T10:10:21.616Z,73.30
2019-03-28T10:11:21.663Z,73.87
2019-03-28T10:12:21.652Z,73.49
2019-03-28T10:13:21.679Z,71.30
2019-03-28T10:14:21.629Z,71.43
2019-03-28T10:15:21.808Z,71.43
2019-03-28T10:16:21.647Z,71.52
2019-03-28T10:17:21.594Z,71.33
2019-03-28T10:18:21.550Z,71.04
2019-03-28T10:19:21.585Z,68.95
2019-03-28T10:20:21.548Z,70.47
2019-03-28T10:21:21.743Z,69.90
2019-03-28T10:22:22.452Z,69.71
2019-03-28T10:23:21.651Z,68.47
2019-03-28T10:24:21.879Z,69.04
2019-03-28T10:25:21.475Z,69.37
2019-03-28T10:26:21.684Z,68.57
2019-03-28T10:27:21.556Z,68.76
2019-03-28T10:28:21.619Z,69.27
2019-03-28T10:29:21.521Z,69.08
2019-03-28T10:30:21.563Z,69.08
2019-03-28T10:31:21.462Z,68.41
2019-03-28T10:32:21.544Z,67.74
2019-03-28T10:33:21.443Z,68.32
2019-03-28T10:34:21.452Z,67.55
2019-03-28T10:35:21.445Z,67.93
2019-03-28T10:36:21.387Z,68.03
2019-03-28T10:37:21.816Z,69.93
2019-03-28T10:38:21.570Z,69.27
2019-03-28T10:39:21.608Z,68.22
2019-03-28T10:42:03.106Z,68.41
2019-03-28T10:43:04.567Z,68.60
2019-03-28T10:44:04.666Z,69.17
2019-03-28T10:45:04.529Z,68.12
2019-03-28T10:46:04.535Z,67.74
2019-03-28T10:47:04.917Z,68.22
2019-03-28T10:48:04.295Z,66.88
2019-03-28T10:49:03.841Z,67.36
2019-03-28T10:50:04.533Z,67.93
2019-03-28T10:51:04.581Z,67.58
2019-03-28T10:52:04.063Z,66.53
2019-03-28T10:53:04.717Z,67.40
2019-03-28T10:54:18.714Z,66.72
2019-03-28T10:55:04.356Z,66.63
2019-03-28T10:56:04.310Z,66.35
2019-03-28T10:57:13.622Z,65.58
2019-03-28T10:58:17.228Z,65.96
2019-03-28T10:59:04.413Z,66.44
2019-03-28T11:00:03.840Z,66.25
2019-03-28T11:01:02.971Z,66.35
2019-03-28T11:02:02.354Z,65.96
2019-03-28T11:03:02.538Z,66.63
2019-03-28T11:04:02.308Z,66.15
2019-03-28T11:05:02.338Z,66.35
2019-03-28T11:06:02.353Z,65.77
2019-03-28T11:07:02.223Z,66.28
2019-03-28T11:08:02.396Z,65.48
2019-03-28T11:09:02.428Z,65.61
2019-03-28T11:10:02.276Z,64.75
2019-03-28T11:11:02.340Z,64.94
2019-03-28T11:12:02.286Z,63.60
2019-03-28T11:13:02.251Z,63.51
2019-03-28T11:14:02.258Z,64.28
2019-03-28T11:15:02.254Z,64.28
2019-03-28T11:16:02.261Z,63.57
2019-03-28T11:17:02.220Z,64.25
2019-03-28T11:18:02.270Z,64.34
2019-03-28T11:19:02.199Z,64.18
2019-03-28T11:20:02.275Z,63.76
2019-03-28T11:21:02.216Z,63.39
2019-03-28T11:22:02.206Z,62.91
2019-03-28T11:24:47.322Z,63.70
2019-03-28T11:27:23.809Z,65.33
2019-03-28T11:28:17.846Z,63.70
2019-03-28T11:32:43.546Z,60.64
2019-03-28T11:33:53.107Z,60.74
2019-03-28T11:34:23.957Z,61.98
2019-03-28T11:35:24.243Z,60.74
2019-03-28T11:36:24.291Z,60.84
2019-03-28T11:37:26.283Z,60.93
2019-03-28T11:38:23.764Z,60.17
2019-03-28T11:39:24.516Z,59.59
2019-03-28T11:40:24.627Z,60.17
2019-03-28T11:41:24.282Z,60.64
2019-03-28T11:42:25.417Z,59.88
2019-03-28T11:43:24.232Z,59.69
2019-03-28T11:44:25.702Z,59.88
2019-03-28T11:45:26.841Z,60.17
2019-03-28T11:46:39.315Z,60.46
2019-03-28T11:47:36.787Z,60.55
2019-03-28T11:48:30.389Z,61.72
2019-03-28T11:49:23.963Z,60.68
2019-03-28T11:50:22.810Z,59.15
2019-03-28T11:51:22.474Z,58.93
2019-03-28T11:52:22.358Z,59.12
2019-03-28T11:53:22.390Z,58.45
2019-03-28T11:54:22.376Z,59.41
2019-03-28T11:55:22.389Z,60.20
2019-03-28T11:56:22.439Z,59.44
2019-03-28T11:57:22.286Z,60.01
2019-03-28T11:58:22.452Z,59.34
2019-03-28T11:59:22.424Z,58.58
2019-03-28T12:00:22.381Z,58.29
2019-03-28T12:01:22.410Z,58.58
2019-03-28T12:02:33.310Z,59.91
2019-03-28T12:04:28.916Z,60.01
2019-03-28T12:05:27.776Z,59.53
2019-03-28T12:06:35.631Z,58.70
2019-03-28T12:07:37.773Z,58.89
2019-03-28T12:09:23.743Z,58.61
2019-03-28T12:12:41.282Z,59.18
2019-03-28T12:13:44.660Z,58.22
2019-03-28T12:15:41.873Z,57.84
2019-03-28T12:16:43.387Z,55.64
2019-03-28T12:18:29.366Z,56.60
2019-03-28T12:19:28.193Z,56.31
2019-03-28T12:22:50.729Z,59.18
2019-03-28T12:25:42.779Z,59.84
2019-03-28T12:26:35.806Z,59.47
2019-03-28T12:29:19.181Z,58.61
2019-03-28T12:30:19.247Z,59.08
2019-03-28T12:31:19.452Z,57.84
2019-03-28T12:32:18.864Z,57.75
2019-03-28T12:33:18.335Z,58.22
2019-03-28T12:34:19.388Z,59.08
2019-03-28T12:35:19.399Z,57.46
2019-03-28T12:36:18.832Z,57.65
2019-03-28T12:37:18.288Z,57.75
2019-03-28T12:38:18.717Z,57.65
2019-03-28T12:39:19.202Z,57.65
2019-03-28T12:40:18.724Z,58.61
2019-03-28T12:41:19.615Z,58.12
2019-03-28T12:42:18.733Z,59.56
2019-03-28T12:43:17.731Z,58.63
2019-03-28T12:44:17.846Z,58.51
2019-03-28T12:45:17.516Z,59.47
2019-03-28T12:47:43.228Z,59.47
2019-03-28T12:48:41.029Z,58.89
2019-03-28T12:49:42.622Z,59.18
2019-03-28T12:50:42.088Z,59.08
2019-03-28T12:51:42.080Z,58.80
2019-03-28T12:52:41.882Z,58.98
2019-03-28T12:53:41.818Z,58.44
2019-03-28T12:54:44.070Z,58.25
2019-03-28T12:55:42.607Z,58.63
2019-03-28T12:56:42.052Z,58.44
2019-03-28T12:57:42.312Z,58.54
2019-03-28T12:58:41.505Z,58.63
2019-03-28T12:59:41.859Z,57.58
2019-03-28T13:00:42.373Z,58.54
2019-03-28T13:01:42.542Z,58.34
2019-03-28T13:02:42.569Z,58.54
2019-03-28T13:03:45.930Z,57.77
2019-03-28T13:04:40.632Z,58.34
2019-03-28T13:05:40.557Z,58.25
2019-03-28T13:08:24.219Z,58.12
2019-03-28T13:09:24.059Z,57.68
2019-03-28T13:11:16.668Z,57.13
2019-03-28T13:13:29.422Z,56.08
2019-03-28T13:14:17.325Z,55.98
2019-03-28T13:15:17.329Z,55.67
2019-03-28T13:16:17.780Z,56.08
2019-03-28T13:21:36.243Z,56.75
2019-03-28T13:22:35.609Z,57.90
2019-03-28T13:23:36.550Z,57.20
2019-03-28T13:24:36.261Z,57.04
2019-03-28T13:25:36.088Z,57.61
2019-03-28T13:26:35.034Z,57.70
2019-03-28T13:27:36.480Z,55.88
2019-03-28T13:28:36.188Z,56.59
2019-03-28T13:29:35.565Z,56.65
2019-03-28T13:30:35.065Z,55.91
2019-03-28T13:31:36.140Z,54.38
2019-03-28T13:32:41.577Z,55.82
2019-03-28T13:36:01.911Z,54.83
2019-03-28T13:58:56.360Z,55.82
2019-03-28T14:01:57.419Z,56.01
2019-03-28T14:02:58.742Z,56.30
2019-03-28T14:03:55.525Z,56.59
2019-03-28T14:04:56.090Z,56.49
2019-03-28T14:05:56.416Z,56.20
2019-03-28T14:06:56.621Z,56.01
2019-03-28T14:07:56.337Z,56.59
2019-03-28T14:08:56.087Z,56.49
2019-03-28T14:09:56.052Z,56.68
2019-03-28T14:10:54.711Z,56.39
2019-03-28T14:11:56.332Z,56.77
2019-03-28T14:12:56.394Z,56.49
2019-03-28T14:13:55.590Z,56.68
2019-03-28T14:16:53.105Z,57.35
2019-03-28T14:17:52.158Z,57.64
2019-03-28T14:21:31.963Z,56.84
2019-03-28T14:22:31.868Z,57.13
2019-03-28T14:23:31.770Z,57.51
2019-03-28T14:24:31.557Z,57.61
2019-03-28T14:28:09.318Z,57.80
2019-03-28T14:29:08.500Z,57.42
2019-03-28T14:30:09.492Z,57.70
2019-03-28T14:31:24.068Z,57.51
2019-03-28T14:33:15.774Z,57.51
2019-03-28T14:34:14.505Z,57.90
2019-03-28T14:35:14.330Z,58.47
2019-03-28T14:40:25.918Z,58.09
2019-03-28T14:41:26.204Z,58.47
2019-03-28T14:42:27.238Z,58.47
2019-03-28T14:43:37.304Z,58.50
2019-03-28T14:45:40.519Z,58.59
2019-03-28T14:46:31.523Z,57.45
2019-03-28T14:47:45.068Z,58.22
2019-03-28T14:49:50.304Z,58.12
2019-03-28T14:50:50.331Z,58.69
2019-03-28T14:51:49.902Z,57.83
2019-03-28T14:52:50.304Z,57.54
2019-03-28T14:53:49.706Z,58.09
2019-03-28T14:54:49.910Z,58.18
2019-03-28T14:55:49.177Z,58.37
2019-03-28T14:56:50.330Z,58.37
2019-03-28T14:57:49.428Z,58.47
2019-03-28T14:58:50.222Z,58.28
2019-03-28T14:59:49.164Z,58.95
2019-03-28T15:02:55.533Z,59.33
2019-03-28T15:03:55.490Z,58.86
2019-03-28T15:06:59.611Z,58.66
2019-03-28T15:09:41.867Z,59.52
2019-03-28T15:13:18.062Z,60.29
2019-03-28T15:16:15.762Z,59.91
2019-03-28T15:17:12.638Z,59.62
2019-03-28T15:20:11.233Z,59.62
2019-03-28T15:21:10.945Z,60.86
2019-03-28T15:23:08.266Z,59.43
2019-03-28T15:26:14.875Z,59.81
2019-03-28T15:28:58.232Z,59.91
2019-03-28T15:31:53.977Z,60.29
2019-03-28T15:32:54.227Z,60.67
2019-03-28T15:33:52.947Z,60.67
2019-03-28T15:34:53.500Z,60.86
2019-03-28T15:35:54.052Z,61.15
2019-03-28T15:36:53.590Z,61.44
2019-03-28T15:37:54.037Z,61.44
2019-03-28T15:38:53.456Z,60.67
2019-03-28T15:39:53.953Z,60.86
2019-03-28T15:40:53.483Z,61.25
2019-03-28T15:41:54.119Z,62.20
2019-03-28T15:42:53.492Z,61.82
2019-03-28T15:43:52.910Z,62.40
2019-03-28T15:44:53.401Z,61.72
2019-03-28T15:45:53.420Z,61.63
2019-03-28T15:46:54.043Z,61.82
2019-03-28T15:47:53.910Z,61.54
2019-03-28T15:48:53.944Z,61.05
2019-03-28T15:49:54.001Z,61.34
2019-03-28T15:50:52.483Z,61.63
2019-03-28T15:51:52.051Z,61.25
2019-03-28T15:52:52.179Z,61.82
2019-03-28T15:53:52.160Z,61.54
2019-03-28T15:54:52.093Z,61.54
2019-03-28T15:55:52.100Z,61.82
2019-03-28T15:56:51.900Z,62.30
2019-03-28T15:57:51.897Z,62.40
2019-03-28T16:06:35.941Z,63.06
2019-03-28T16:07:36.689Z,62.20
2019-03-28T16:08:35.738Z,62.97
2019-03-28T16:09:36.494Z,62.49
2019-03-28T16:10:35.860Z,62.49
2019-03-28T16:11:36.245Z,62.87
2019-03-28T16:12:36.201Z,62.68
2019-03-28T16:13:37.430Z,62.30
2019-03-28T16:14:36.665Z,62.87
2019-03-28T16:15:36.409Z,63.54
2019-03-28T16:18:16.316Z,63.06
2019-03-28T16:19:15.699Z,63.03
2019-03-28T16:22:03.949Z,63.26
2019-03-28T16:22:58.635Z,62.97
2019-03-28T16:25:04.473Z,63.16
2019-03-28T16:28:20.738Z,63.73
2019-03-28T16:29:36.346Z,63.93
2019-03-28T16:30:20.975Z,63.54
2019-03-28T16:31:20.716Z,63.64
2019-03-28T16:32:20.253Z,63.73
2019-03-28T16:33:20.279Z,62.49
2019-03-28T16:34:20.240Z,62.01
2019-03-28T16:35:21.145Z,63.26
2019-03-28T16:36:20.751Z,62.97
2019-03-28T16:37:20.983Z,62.37
2019-03-28T16:38:20.689Z,62.77
2019-03-28T16:39:21.031Z,62.11
2019-03-28T16:40:20.758Z,62.55
2019-03-28T16:41:21.026Z,63.03
2019-03-28T16:42:20.950Z,62.01
2019-03-28T16:43:20.163Z,62.37
2019-03-28T16:44:18.947Z,62.40
2019-03-28T16:45:18.825Z,62.08
2019-03-28T16:46:18.670Z,62.87
2019-03-28T16:47:18.927Z,61.91
2019-03-28T16:48:18.817Z,62.40
2019-03-28T16:49:18.755Z,63.06
2019-03-28T16:50:19.031Z,62.84
2019-03-28T16:51:18.673Z,63.03
2019-03-28T16:52:18.804Z,62.94
2019-03-28T16:53:18.917Z,63.03
2019-03-28T16:54:18.604Z,63.60
2019-03-28T16:57:12.596Z,63.80
2019-03-28T16:58:01.976Z,63.80
2019-03-28T17:00:33.047Z,63.60
2019-03-28T17:01:32.918Z,63.99
2019-03-28T17:02:32.353Z,63.89
